Aérodrome de Condom - Valence-sur-Baïse

LFID · Gers, Occitanie, França

História da METAR LFID · Condom Valence Sur Baise Airport

Abaixo você vê METARs dos últimos dias. Selecione um ano para navegar pelos METARs mais antigos, a partir do ano 2007.

9 de dezembro de 2022

Hora Código Clima Temp. Visibilidade Tecto Vento METAR/SPECI
09:30
L
8 °C 2,6 km 400 ft 290° 290° 2 kt SPECI LFBA 090830Z AUTO 29002KT 2600 BR BKN004 OVC008 08/08 Q0999 TEMPO VV/// BECMG 6000 NSW
09:30
L
8 °C 2,6 km 400 ft 290° 290° 2 kt METAR LFBA 090830Z AUTO 29002KT 2600 BR BKN004 OVC008 08/08 Q0999 TEMPO VV/// BECMG 6000 NSW
09:00
L
8 °C 2,2 km 400 ft 320° 320° 2 kt METAR LFBA 090800Z AUTO 32002KT 2200 -RA BR BKN004 BKN011 OVC017 08/08 Q0999 TEMPO 0800 FG VV///
08:30
I
8 °C 2,2 km 500 ft Var 000° 0 kt METAR LFBA 090730Z AUTO 00000KT 2200 -RA BR BKN005 OVC009 08/07 Q0999 TEMPO 0800 FG VV///
08:00
I
7 °C 2,4 km 600 ft 120° 120° 2 kt METAR LFBA 090700Z AUTO 12002KT 2400 -RA BR OVC006 07/07 Q0999 TEMPO 0800 FG VV///
07:30
L
7 °C 4,8 km 400 ft Var Var 1 kt METAR LFBA 090630Z AUTO VRB01KT 4800 BR BKN004/// BKN011/// OVC021/// ///TCU 07/07 Q0998 TEMPO 0800 FG VV///
07:00
L
7 °C 4,4 km 300 ft 030° 030° 2 kt METAR LFBA 090600Z AUTO 03002KT 4400 -RA BR OVC003/// ///TCU 07/07 Q0998
06:30
L
7 °C 3,8 km 300 ft Var Var 2 kt METAR LFBA 090530Z AUTO VRB02KT 3800 RA BR BKN003/// BKN009/// BKN013/// //////TCU 07/07 Q0998
06:00
L
7 °C 3 km 200 ft Var Var 1 kt METAR LFBA 090500Z AUTO VRB01KT 3000 RA BR BKN002/// OVC042/// ///TCU 07/07 Q0998
05:30
L
7 °C 3,8 km 200 ft Var Var 2 kt METAR LFBA 090430Z AUTO VRB02KT 3800 -RA BR BKN002/// OVC043/// ///CB 07/07 Q0998
05:00
I
7 °C 3,3 km 900 ft 090° 090° 4 kt METAR LFBA 090400Z AUTO 09004KT 060V160 3300 -RA BR FEW002/// BKN009/// BKN041/// ///CB 07/07 Q0998
04:30
I
7 °C 3,4 km 5.200 ft Var Var 3 kt METAR LFBA 090330Z AUTO VRB03KT 3400 RA BR SCT011/// BKN052/// OVC064/// //////CB 07/07 Q0999
04:00
I
7 °C 4 km 5.800 ft 250° 250° 3 kt METAR LFBA 090300Z AUTO 25003KT 4000 -RA BR FEW005/// SCT012/// BKN058/// //////CB 07/07 Q0999
03:30
I
7 °C 3,4 km 6.600 ft 010° 010° 1 kt METAR LFBA 090230Z AUTO 01001KT 3400 -RA BR FEW024/// SCT052/// OVC066/// //////CB 07/07 Q0999
03:00
I
7 °C 4,2 km 6.600 ft Var Var 2 kt METAR LFBA 090200Z AUTO VRB02KT 4200 -RA BR SCT009/// SCT049/// BKN066/// //////TCU 07/07 Q0999
02:30
I
7 °C 7 km 800 ft 180° 180° 2 kt METAR LFBA 090130Z AUTO 18002KT 7000 -DZ OVC008/// ///CB 07/07 Q0999
02:00
I
7 °C 4,8 km 800 ft 120° 120° 3 kt METAR LFBA 090100Z AUTO 12003KT 4800 -DZ BR BKN008/// OVC062/// ///TCU 07/07 Q0999
01:30
I
7 °C 4,9 km 4.100 ft Var 000° 0 kt METAR LFBA 090030Z AUTO 00000KT 4900 BR FEW008 BKN041 BKN049 07/07 Q0999
01:00
I
7 °C 4,1 km 6.600 ft Var 000° 0 kt METAR LFBA 090000Z AUTO 00000KT 4100 -DZ BR SCT042 OVC066 07/07 Q0999
00:30
I
7 °C 4,7 km - 050° 050° 1 kt METAR LFBA 082330Z AUTO 05001KT 4700 -RA BR NSC 07/07 Q0999
00:00
M
7 °C 5 km - 120° 120° 2 kt METAR LFBA 082300Z AUTO 12002KT 5000 -RA BR //////TCU 07/07 Q1000

8 de dezembro de 2022

Hora Código Clima Temp. Visibilidade Tecto Vento METAR/SPECI
23:30
M
7 °C 5 km - 130° 130° 3 kt METAR LFBA 082230Z AUTO 13003KT 5000 -RA BR //////TCU 07/07 Q1000
23:00
I
7 °C 4,6 km - 110° 110° 2 kt METAR LFBA 082200Z AUTO 11002KT 4600 -RA BR //////TCU 07/07 Q1000
22:30
I
7 °C 4,4 km 7.600 ft 100° 100° 3 kt METAR LFBA 082130Z AUTO 10003KT 4400 -RA BR FEW003/// SCT058/// BKN076/// //////TCU 07/07 Q1000
22:00
M
7 °C 5 km - 100° 100° 5 kt METAR LFBA 082100Z AUTO 10005KT 5000 -RA BR //////TCU 07/07 Q1001 BECMG BKN008
21:30
I
7 °C 4,5 km - 100° 100° 4 kt METAR LFBA 082030Z AUTO 10004KT 4500 -DZ BR NSC 07/07 Q1001 BECMG 9999 NSW BKN008
21:00
I
7 °C 4,8 km - 100° 100° 4 kt METAR LFBA 082000Z AUTO 10004KT 4800 -RA BR NSC 07/07 Q1001 TEMPO BKN009 BKN060 BECMG 9999 NSW
20:30
M
7 °C 6 km - 120° 120° 3 kt METAR LFBA 081930Z AUTO 12003KT 6000 -RA NSC 07/07 Q1002 TEMPO 4000 RA BKN009 BKN060
20:00
M
7 °C 6 km - 120° 120° 5 kt METAR LFBA 081900Z AUTO 12005KT 6000 -RA ///TCU 07/07 Q1002 TEMPO 4000 RA BKN009 BKN060
19:30
M
7 °C 6 km 6.800 ft 110° 110° 4 kt METAR LFBA 081830Z AUTO 11004KT 6000 -RA FEW045/// OVC068/// ///TCU 07/07 Q1002 TEMPO 4000 RA BKN009 BKN060
19:00
M
7 °C 7 km - 120° 120° 4 kt METAR LFBA 081800Z AUTO 12004KT 7000 -RA ///CB 07/06 Q1002 TEMPO 4000 RA BKN009 BKN060
18:30
M
7 °C 7 km - 100° 100° 2 kt METAR LFBA 081730Z AUTO 10002KT 7000 -RA //////TCU 07/06 Q1003 TEMPO 4000 RA BKN009 BKN060
18:00
V
8 °C 10 km+ - 130° 130° 3 kt METAR LFBA 081700Z AUTO 13003KT 9999 -RA //////TCU 08/06 Q1003 TEMPO 4000 RA BKN009 BKN060
17:30
V
7 °C 10 km+ - 120° 120° 3 kt METAR LFBA 081630Z AUTO 12003KT 9999 -RA ///TCU 07/06 Q1003 TEMPO 4000 RA BKN009 BKN060
17:00
V
8 °C 10 km+ - 120° 120° 4 kt METAR LFBA 081600Z AUTO 12004KT 9999 -RA ///TCU 08/06 Q1003 TEMPO 4000 RA BKN009 BKN060
16:30
V
8 °C 10 km+ 6.400 ft 110° 110° 5 kt METAR LFBA 081530Z AUTO 11005KT 9999 -RA FEW045/// OVC064/// //////CB 08/06 Q1003 TEMPO 4000 RA BKN009 BKN060
16:00
V
8 °C 10 km+ 6.800 ft 110° 110° 6 kt METAR LFBA 081500Z AUTO 11006KT 9999 -RA FEW018 SCT052 BKN068 08/06 Q1003 NOSIG
15:30
V
8 °C 10 km+ 7.400 ft 130° 130° 5 kt METAR LFBA 081430Z AUTO 13005KT 9999 FEW018 BKN074 BKN086 08/05 Q1003 NOSIG
15:00
V
8 °C 10 km+ - 120° 120° 5 kt METAR LFBA 081400Z AUTO 12005KT CAVOK 08/06 Q1003 NOSIG
14:30
V
8 °C 10 km+ - 110° 110° 8 kt METAR LFBA 081330Z AUTO 11008KT CAVOK 08/06 Q1003 NOSIG
14:00
V
8 °C 10 km+ - 100° 100° 9 kt METAR LFBA 081300Z AUTO 10009KT CAVOK 08/06 Q1003 NOSIG
13:30
V
8 °C 10 km+ 15.000 ft 100° 100° 9 kt METAR LFBA 081230Z AUTO 10009KT 9999 FEW009 BKN150 08/06 Q1004 NOSIG
13:00
V
8 °C 10 km+ 16.000 ft 100° 100° 9 kt METAR LFBA 081200Z AUTO 10009KT 9999 SCT008 OVC160 08/06 Q1004 TEMPO BKN008
12:30
V
7 °C 10 km+ 16.000 ft 110° 110° 10 kt METAR LFBA 081130Z AUTO 11010KT 9999 SCT008 BKN160 BKN200 07/05 Q1005 NOSIG
12:00
V
6 °C 10 km+ - 110° 110° 10 kt METAR LFBA 081100Z AUTO 11010KT CAVOK 06/05 Q1005 NOSIG
11:30
V
6 °C 10 km+ 20.000 ft 110° 110° 10 kt METAR LFBA 081030Z AUTO 11010KT 9999 FEW008 OVC200 06/04 Q1006 NOSIG
11:00
V
5 °C 10 km+ 19.000 ft 110° 110° 9 kt METAR LFBA 081000Z AUTO 11009KT 9999 FEW008 OVC190 05/03 Q1006 NOSIG
10:30
V
5 °C 10 km+ 9.800 ft 110° 110° 8 kt METAR LFBA 080930Z AUTO 11008KT 090V150 9999 FEW008 BKN098 BKN190 05/03 Q1006 NOSIG
10:00
V
4 °C 10 km+ - 110° 110° 7 kt METAR LFBA 080900Z AUTO 11007KT CAVOK 04/03 Q1007 NOSIG
09:30
V
4 °C 10 km+ - 100° 100° 7 kt METAR LFBA 080830Z AUTO 10007KT CAVOK 04/02 Q1007 NOSIG
09:00
V
3 °C 10 km+ - 110° 110° 7 kt METAR LFBA 080800Z AUTO 11007KT CAVOK 03/02 Q1007 NOSIG
08:30
V
3 °C 10 km+ - 110° 110° 6 kt METAR LFBA 080730Z AUTO 11006KT CAVOK 03/02 Q1007 NOSIG
08:00
V
3 °C 10 km+ 9.800 ft 110° 110° 5 kt METAR LFBA 080700Z AUTO 11005KT 9999 SCT023 OVC098 03/02 Q1007 NOSIG
07:30
V
2 °C 10 km+ - 100° 100° 5 kt METAR LFBA 080630Z AUTO 10005KT CAVOK 02/02 Q1008 NOSIG
07:00
V
3 °C 10 km+ - 100° 100° 5 kt METAR LFBA 080600Z AUTO 10005KT CAVOK 03/02 Q1008 NOSIG
06:30
V
3 °C 10 km+ - 120° 120° 7 kt METAR LFBA 080530Z AUTO 12007KT CAVOK 03/02 Q1008
06:00
V
3 °C 10 km+ - 130° 130° 5 kt METAR LFBA 080500Z AUTO 13005KT 100V170 CAVOK 03/02 Q1008
05:30
V
3 °C 10 km+ - 120° 120° 4 kt METAR LFBA 080430Z AUTO 12004KT CAVOK 03/02 Q1008
05:00
V
3 °C 10 km+ - 120° 120° 4 kt METAR LFBA 080400Z AUTO 12004KT CAVOK 03/02 Q1009
04:30
V
3 °C 10 km+ - 110° 110° 5 kt METAR LFBA 080330Z AUTO 11005KT CAVOK 03/02 Q1009
04:00
V
3 °C 10 km+ - 110° 110° 4 kt METAR LFBA 080300Z AUTO 11004KT CAVOK 03/02 Q1009
03:30
V
2 °C 9 km - 110° 110° 4 kt METAR LFBA 080230Z AUTO 11004KT 9000 NSC 02/02 Q1010
03:00
I
2 °C 4,1 km 9.400 ft 100° 100° 4 kt METAR LFBA 080200Z AUTO 10004KT 4100 BR FEW002 OVC094 02/02 Q1010
02:30
L
1 °C 2,4 km 200 ft Var Var 2 kt METAR LFBA 080130Z AUTO VRB02KT 2400 BR BKN002 BKN096 01/01 Q1010
02:00
L
2 °C 3,3 km 300 ft 120° 120° 3 kt METAR LFBA 080100Z AUTO 12003KT 3300 BR BKN003 02/02 Q1010
01:30
I
2 °C 4,2 km - 090° 090° 4 kt METAR LFBA 080030Z AUTO 09004KT 4200 BR FEW001 SCT110 02/02 Q1011
01:00
M
1 °C 6 km - 120° 120° 4 kt METAR LFBA 080000Z AUTO 12004KT 6000 NSC 01/01 Q1011
00:30
M
1 °C 6 km - 130° 130° 3 kt METAR LFBA 072330Z AUTO 13003KT 6000 NSC 01/01 Q1011
00:00
M
1 °C 6 km - 110° 110° 2 kt METAR LFBA 072300Z AUTO 11002KT 6000 NSC 01/01 Q1011

7 de dezembro de 2022

Hora Código Clima Temp. Visibilidade Tecto Vento METAR/SPECI
23:30
M
1 °C 6 km - 100° 100° 2 kt METAR LFBA 072230Z AUTO 10002KT 6000 NSC 01/01 Q1011
23:00
M
2 °C 7 km - Var 000° 0 kt METAR LFBA 072200Z AUTO 00000KT 7000 NSC 02/01 Q1012
22:30
M
1 °C 7 km - 350° 350° 1 kt METAR LFBA 072130Z AUTO 35001KT 7000 NSC 01/01 Q1012 NOSIG
22:00
M
2 °C 7 km - Var 000° 0 kt METAR LFBA 072100Z AUTO 00000KT 7000 NSC 02/01 Q1012 NOSIG
21:30
V
2 °C 8 km - Var 000° 0 kt METAR LFBA 072030Z AUTO 00000KT 8000 NSC 02/01 Q1012 NOSIG
21:00
M
2 °C 7 km - 260° 260° 1 kt METAR LFBA 072000Z AUTO 26001KT 7000 NSC 02/01 Q1012 NOSIG
20:30
V
3 °C 9 km - 270° 270° 2 kt METAR LFBA 071930Z AUTO 27002KT 9000 NSC 03/02 Q1013 NOSIG
20:00
V
3 °C 8 km - 270° 270° 2 kt METAR LFBA 071900Z AUTO 27002KT 8000 NSC 03/02 Q1013 NOSIG
19:30
V
3 °C 9 km - 260° 260° 2 kt METAR LFBA 071830Z AUTO 26002KT 9000 NSC 03/02 Q1013 NOSIG
19:00
V
4 °C 10 km+ - 260° 260° 2 kt METAR LFBA 071800Z AUTO 26002KT CAVOK 04/03 Q1013 NOSIG
18:30
V
5 °C 10 km+ - 270° 270° 4 kt METAR LFBA 071730Z AUTO 27004KT 230V310 CAVOK 05/03 Q1013 NOSIG
18:00
V
6 °C 10 km+ - 280° 280° 4 kt METAR LFBA 071700Z AUTO 28004KT CAVOK 06/03 Q1013 NOSIG
17:30
V
7 °C 10 km+ - 280° 280° 3 kt METAR LFBA 071630Z AUTO 28003KT CAVOK 07/04 Q1013 NOSIG
17:00
V
7 °C 10 km+ - 310° 310° 4 kt METAR LFBA 071600Z AUTO 31004KT CAVOK 07/04 Q1013 NOSIG
16:30
V
9 °C 10 km+ - 320° 320° 5 kt METAR LFBA 071530Z AUTO 32005KT CAVOK 09/04 Q1013 NOSIG
16:00
V
10 °C 10 km+ - 300° 300° 5 kt METAR LFBA 071500Z AUTO 30005KT CAVOK 10/05 Q1013 NOSIG
15:30
V
11 °C 10 km+ - 310° 310° 4 kt METAR LFBA 071430Z AUTO 31004KT 280V350 CAVOK 11/04 Q1013 NOSIG
15:00
V
11 °C 10 km+ - 310° 310° 4 kt METAR LFBA 071400Z AUTO 31004KT 280V350 CAVOK 11/05 Q1013 NOSIG
14:30
V
11 °C 10 km+ - 310° 310° 4 kt METAR LFBA 071330Z AUTO 31004KT 280V350 CAVOK 11/05 Q1014 NOSIG
14:00
V
11 °C 10 km+ - 290° 290° 5 kt METAR LFBA 071300Z AUTO 29005KT 260V320 CAVOK 11/05 Q1014 NOSIG
13:30
V
10 °C 10 km+ - 310° 310° 3 kt METAR LFBA 071230Z AUTO 31003KT 270V360 CAVOK 10/04 Q1014 NOSIG
13:00
V
10 °C 10 km+ - 310° 310° 4 kt METAR LFBA 071200Z AUTO 31004KT 270V350 CAVOK 10/04 Q1015 NOSIG
12:30
V
9 °C 10 km+ - 340° 340° 5 kt METAR LFBA 071130Z AUTO 34005KT CAVOK 09/05 Q1015 NOSIG
12:00
V
9 °C 10 km+ - Var Var 3 kt METAR LFBA 071100Z AUTO VRB03KT CAVOK 09/05 Q1015 NOSIG
11:30
V
8 °C 10 km+ - Var Var 3 kt METAR LFBA 071030Z AUTO VRB03KT CAVOK 08/05 Q1016 NOSIG
11:00
V
6 °C 10 km+ - 330° 330° 6 kt METAR LFBA 071000Z AUTO 33006KT CAVOK 06/04 Q1016 NOSIG
10:30
V
6 °C 10 km+ - 310° 310° 5 kt METAR LFBA 070930Z AUTO 31005KT CAVOK 06/04 Q1016 NOSIG
10:00
V
6 °C 10 km+ - Var Var 3 kt METAR LFBA 070900Z AUTO VRB03KT CAVOK 06/04 Q1016 NOSIG
09:30
V
5 °C 10 km+ - Var Var 2 kt METAR LFBA 070830Z AUTO VRB02KT CAVOK 05/04 Q1016 NOSIG
09:00
V
4 °C 10 km+ - 290° 290° 3 kt METAR LFBA 070800Z AUTO 29003KT 9999 -RA NSC 04/03 Q1016 NOSIG
08:30
V
5 °C 10 km+ - 290° 290° 5 kt METAR LFBA 070730Z AUTO 29005KT 9999 -RA NSC 05/03 Q1016 NOSIG
08:00
V
6 °C 10 km+ - 300° 300° 5 kt METAR LFBA 070700Z AUTO 30005KT CAVOK 06/05 Q1016 NOSIG
07:30
V
6 °C 10 km+ - 290° 290° 4 kt METAR LFBA 070630Z AUTO 29004KT CAVOK 06/05 Q1016 NOSIG
07:00
V
6 °C 10 km+ - 300° 300° 4 kt METAR LFBA 070600Z AUTO 30004KT CAVOK 06/05 Q1015 NOSIG
06:30
V
6 °C 10 km+ - 290° 290° 3 kt METAR LFBA 070530Z AUTO 29003KT CAVOK 06/05 Q1015
06:00
V
7 °C 10 km+ 7.400 ft 290° 290° 3 kt METAR LFBA 070500Z AUTO 29003KT 9999 FEW048 OVC074 07/06 Q1016
05:30
V
7 °C 10 km+ 7.400 ft 300° 300° 3 kt METAR LFBA 070430Z AUTO 30003KT 9999 FEW049 OVC074 07/06 Q1016
05:00
V
7 °C 10 km+ 7.200 ft Var Var 2 kt METAR LFBA 070400Z AUTO VRB02KT 9999 FEW048 OVC072 07/06 Q1016
04:30
V
7 °C 10 km+ - 300° 300° 2 kt METAR LFBA 070330Z AUTO 30002KT CAVOK 07/06 Q1016
04:00
V
7 °C 10 km+ - 280° 280° 2 kt METAR LFBA 070300Z AUTO 28002KT CAVOK 07/06 Q1016
03:30
V
7 °C 9 km - 290° 290° 2 kt METAR LFBA 070230Z AUTO 29002KT 9000 NSC 07/07 Q1016
03:00
V
7 °C 10 km+ - Var Var 1 kt METAR LFBA 070200Z AUTO VRB01KT CAVOK 07/06 Q1016
02:30
V
8 °C 10 km+ - Var 000° 0 kt METAR LFBA 070130Z AUTO 00000KT CAVOK 08/06 Q1016
02:00
V
8 °C 10 km+ - Var 000° 0 kt METAR LFBA 070100Z AUTO 00000KT CAVOK 08/07 Q1016
01:30
V
8 °C 10 km+ - 230° 230° 3 kt METAR LFBA 070030Z AUTO 23003KT CAVOK 08/07 Q1016
01:00
V
7 °C 10 km+ - Var 000° 0 kt METAR LFBA 070000Z AUTO 00000KT CAVOK 07/06 Q1016
00:30
V
8 °C 10 km+ 7.400 ft 260° 260° 1 kt METAR LFBA 062330Z AUTO 26001KT 9999 FEW049 OVC074 08/06 Q1017
00:00
V
8 °C 10 km+ - Var Var 1 kt METAR LFBA 062300Z AUTO VRB01KT CAVOK 08/06 Q1017

6 de dezembro de 2022

Hora Código Clima Temp. Visibilidade Tecto Vento METAR/SPECI
23:30
V
8 °C 10 km+ - Var Var 1 kt METAR LFBA 062230Z AUTO VRB01KT CAVOK 08/07 Q1017
23:00
V
8 °C 10 km+ - 210° 210° 3 kt METAR LFBA 062200Z AUTO 21003KT 9999 -RA NSC 08/07 Q1017
22:30
V
8 °C 10 km+ - 310° 310° 2 kt METAR LFBA 062130Z AUTO 31002KT CAVOK 08/07 Q1016
22:00
V
8 °C 10 km+ - 240° 240° 2 kt METAR LFBA 062100Z AUTO 24002KT CAVOK 08/06 Q1016 NOSIG
21:30
V
8 °C 10 km+ - 090° 090° 1 kt METAR LFBA 062030Z AUTO 09001KT CAVOK 08/06 Q1016 NOSIG
21:00
V
8 °C 10 km+ - Var 000° 0 kt METAR LFBA 062000Z AUTO 00000KT CAVOK 08/06 Q1016 NOSIG
20:30
V
9 °C 10 km+ - Var Var 3 kt METAR LFBA 061930Z AUTO VRB03KT CAVOK 09/06 Q1016 NOSIG
20:00
V
8 °C 10 km+ - 350° 350° 2 kt METAR LFBA 061900Z AUTO 35002KT CAVOK 08/06 Q1016 NOSIG
19:30
V
9 °C 10 km+ - 340° 340° 1 kt METAR LFBA 061830Z AUTO 34001KT CAVOK 09/06 Q1016 NOSIG
19:00
V
9 °C 10 km+ - 190° 190° 3 kt METAR LFBA 061800Z AUTO 19003KT 9999 ///TCU 09/05 Q1016 TEMPO BKN045
18:30
V
10 °C 10 km+ - Var Var 3 kt METAR LFBA 061730Z AUTO VRB03KT CAVOK 10/05 Q1016 NOSIG
18:00
V
10 °C 10 km+ 7.000 ft Var 000° 0 kt METAR LFBA 061700Z AUTO 00000KT 9999 FEW040/// OVC070/// ///TCU 10/05 Q1016 BECMG NSC
17:30
V
10 °C 10 km+ - 070° 070° 2 kt METAR LFBA 061630Z AUTO 07002KT CAVOK 10/05 Q1016 NOSIG
17:00
V
11 °C 10 km+ - Var Var 2 kt METAR LFBA 061600Z AUTO VRB02KT CAVOK 11/05 Q1016 NOSIG
16:30
V
11 °C 10 km+ - 310° 310° 1 kt METAR LFBA 061530Z AUTO 31001KT CAVOK 11/05 Q1015 NOSIG
16:00
V
11 °C 10 km+ - Var Var 1 kt METAR LFBA 061500Z AUTO VRB01KT CAVOK 11/04 Q1015 NOSIG
15:30
V
11 °C 10 km+ - Var 000° 0 kt METAR LFBA 061430Z AUTO 00000KT CAVOK 11/04 Q1015 NOSIG
15:00
V
10 °C 10 km+ - Var Var 2 kt METAR LFBA 061400Z AUTO VRB02KT CAVOK 10/03 Q1015 NOSIG
14:30
V
10 °C 10 km+ - 110° 110° 3 kt METAR LFBA 061330Z AUTO 11003KT CAVOK 10/03 Q1015 NOSIG
14:00
V
10 °C 10 km+ - 110° 110° 3 kt METAR LFBA 061300Z AUTO 11003KT 070V140 CAVOK 10/03 Q1016 NOSIG
13:30
V
10 °C 10 km+ - 130° 130° 4 kt METAR LFBA 061230Z AUTO 13004KT 090V150 CAVOK 10/02 Q1016 NOSIG
13:00
V
9 °C 10 km+ - 100° 100° 4 kt METAR LFBA 061200Z AUTO 10004KT 060V130 CAVOK 09/03 Q1016 NOSIG
12:30
V
8 °C 10 km+ - 130° 130° 5 kt METAR LFBA 061130Z AUTO 13005KT CAVOK 08/02 Q1016 NOSIG
12:00
V
8 °C 10 km+ - 110° 110° 4 kt METAR LFBA 061100Z AUTO 11004KT CAVOK 08/03 Q1016 NOSIG
11:30
V
7 °C 10 km+ - 110° 110° 4 kt METAR LFBA 061030Z AUTO 11004KT CAVOK 07/03 Q1017 NOSIG
11:00
V
7 °C 10 km+ - 110° 110° 4 kt METAR LFBA 061000Z AUTO 11004KT 9999 ///TCU 07/03 Q1017 BECMG NSC

Nós e terceiros acompanhamos seu comportamento na internet em nosso site com cookies. Se você continuar, nós assumimos que você concorda com nosso política de cookies.